Terminal Aerodrome Forecast
Issued by NWS

Home | Current Version | Previous Version | Text Only | Print | Product List | Glossary On
Versions: 1 2 3 4 5 6 7 8 9 10 11 12 13 14 15 16 17 18 19 20 21 22 23
280
FTUS46 KLOX 230001 AAA
TAFPMD
TAF AMD
KPMD 230001Z 2300/2324 28022G30KT P6SM SCT050
     FM230400 28015G20KT P6SM SKC
     FM230800 27010KT P6SM SKC
     FM231600 29015G25KT P6SM SKC=

USA.gov is the U.S. government's official web portal to all federal, state and local government web resources and services.